Time;durP1;ratioP1;P1;durP2;ratioP2;P2;SDS_P1;SDS_P2;PMS_P1;PMS_P2;Temp;Humidity;BMP_temperature;BMP_pressure;BME280_temperature;BME280_humidity;BME280_pressure;Samples;Min_cycle;Max_cycle;Signal;HPM_P1;HPM_P2
2021/07/29 00:01:17;;;;;;;43.35;14.55;;;;;;;24.99;50.02;95040.78;4962396;23;20031;-80
2021/07/29 00:03:42;;;;;;;34.25;13.40;;;;;;;24.95;50.14;95039.88;4953899;29;20039;-80
2021/07/29 00:06:15;;;;;;;38.67;13.85;;;;;;;24.92;50.21;95041.28;4955286;29;20089;-78
2021/07/29 00:08:40;;;;;;;37.30;12.93;;;;;;;24.89;50.13;95041.13;4952025;29;20031;-78
2021/07/29 00:11:06;;;;;;;47.25;14.73;;;;;;;24.87;50.00;95038.00;4954264;29;20034;-78
2021/07/29 00:13:34;;;;;;;45.38;12.15;;;;;;;24.88;49.66;95029.69;4957292;29;20035;-78
2021/07/29 00:16:02;;;;;;;53.15;12.70;;;;;;;24.89;49.65;95044.56;4957755;29;20023;-78
2021/07/29 00:21:13;;;;;;;50.65;13.18;;;;;;;24.84;50.17;95040.19;5007588;23;20050;-78
2021/07/29 00:23:38;;;;;;;48.13;13.95;;;;;;;24.80;50.25;95038.50;4958062;29;20031;-78
2021/07/29 00:26:03;;;;;;;41.83;13.13;;;;;;;24.76;50.60;95026.94;4956816;29;20039;-78
2021/07/29 00:28:29;;;;;;;46.58;13.77;;;;;;;24.74;50.81;95029.13;4939125;29;20038;-77
2021/07/29 00:30:54;;;;;;;46.67;13.98;;;;;;;24.70;50.75;95022.84;4926312;29;20037;-77
2021/07/29 00:33:20;;;;;;;42.88;14.00;;;;;;;24.68;51.23;95017.84;4943307;29;20039;-78
2021/07/29 00:35:46;;;;;;;48.25;13.60;;;;;;;24.66;50.93;95016.59;4956624;29;20039;-79
2021/07/29 00:38:11;;;;;;;48.35;13.57;;;;;;;24.65;51.06;95020.38;4923922;29;20031;-79
2021/07/29 00:40:37;;;;;;;43.05;14.23;;;;;;;24.64;50.97;95016.16;4940021;29;20031;-78
2021/07/29 00:43:02;;;;;;;49.92;14.10;;;;;;;24.61;51.34;95014.13;4954798;29;20039;-78
2021/07/29 00:45:27;;;;;;;42.13;13.95;;;;;;;24.57;51.75;95013.16;4956046;29;20027;-79
2021/07/29 00:47:53;;;;;;;42.72;13.43;;;;;;;24.51;51.94;95004.59;4971577;23;20043;-79
2021/07/29 00:50:19;;;;;;;40.72;13.52;;;;;;;24.49;51.34;95004.91;4957469;29;20442;-79
2021/07/29 00:52:44;;;;;;;37.65;13.32;;;;;;;24.49;51.19;95001.47;4923684;29;20491;-79
2021/07/29 00:55:18;;;;;;;47.95;14.18;;;;;;;24.50;51.41;95008.34;4920011;29;20479;-79
2021/07/29 00:57:44;;;;;;;47.20;15.40;;;;;;;24.49;51.86;95006.78;4940152;29;20126;-79
2021/07/29 01:00:10;;;;;;;55.28;15.40;;;;;;;24.48;51.86;95000.69;4939604;29;20427;-79
2021/07/29 01:02:35;;;;;;;40.95;13.80;;;;;;;24.47;51.44;94993.81;4922766;29;20034;-79
2021/07/29 01:05:01;;;;;;;42.03;12.95;;;;;;;24.48;50.38;94990.03;4954210;29;20080;-79
2021/07/29 01:07:26;;;;;;;46.38;12.98;;;;;;;24.54;50.09;95003.94;4939229;29;20094;-79
2021/07/29 01:09:51;;;;;;;48.03;14.38;;;;;;;24.61;50.76;95014.13;4938690;29;20019;-78
2021/07/29 01:12:17;;;;;;;43.53;13.68;;;;;;;24.65;51.24;95012.38;4923119;29;20031;-78
2021/07/29 01:14:44;;;;;;;44.53;14.00;;;;;;;24.66;51.62;94998.00;4939115;29;20062;-78
2021/07/29 01:17:09;;;;;;;49.22;12.60;;;;;;;24.68;50.98;94990.47;5021779;23;20353;-79
2021/07/29 01:19:35;;;;;;;55.58;13.95;;;;;;;24.72;50.95;94981.53;4957109;29;20107;-78
2021/07/29 01:22:00;;;;;;;37.08;12.63;;;;;;;24.74;51.01;94983.91;5004034;23;20027;-77
2021/07/29 01:24:26;;;;;;;51.20;13.45;;;;;;;24.78;51.27;94976.84;4964967;29;20031;-77
2021/07/29 01:26:52;;;;;;;42.00;13.88;;;;;;;24.81;51.33;94984.19;4952033;23;20047;-78
2021/07/29 01:29:17;;;;;;;52.38;15.57;;;;;;;24.81;50.90;94981.53;4976594;23;20523;-80
2021/07/29 01:31:43;;;;;;;51.40;15.13;;;;;;;24.82;50.73;94975.13;4967665;23;20046;-78
2021/07/29 01:34:08;;;;;;;51.85;13.50;;;;;;;24.79;50.26;94970.44;4958664;29;20415;-80
2021/07/29 01:36:34;;;;;;;42.97;13.90;;;;;;;24.82;50.07;94980.44;4960344;29;20027;-78
2021/07/29 01:39:00;;;;;;;32.17;13.68;;;;;;;24.86;50.27;94984.00;4942101;29;20023;-78
2021/07/29 01:41:28;;;;;;;48.05;13.75;;;;;;;24.87;50.40;94988.22;4960086;29;20020;-80
2021/07/29 01:43:54;;;;;;;48.17;14.73;;;;;;;24.89;50.80;94983.38;4941318;29;20031;-80
2021/07/29 01:46:19;;;;;;;37.88;14.15;;;;;;;24.88;50.68;94981.81;4958836;29;20415;-80
2021/07/29 01:48:45;;;;;;;49.30;12.40;;;;;;;24.88;49.60;94981.81;4959253;29;20038;-80
2021/07/29 01:51:10;;;;;;;49.10;12.07;;;;;;;24.87;49.75;94980.25;4926115;29;20023;-80
2021/07/29 01:53:35;;;;;;;45.65;12.75;;;;;;;24.88;49.85;94976.50;4964151;23;20039;-80
2021/07/29 01:56:01;;;;;;;32.20;12.32;;;;;;;24.84;49.77;94972.91;4959317;29;20031;-80
2021/07/29 01:58:26;;;;;;;38.92;11.45;;;;;;;24.83;49.96;94984.66;4960246;29;20031;-80
2021/07/29 02:00:53;;;;;;;41.03;13.00;;;;;;;24.81;50.36;94981.53;4942032;29;20035;-80
2021/07/29 02:03:18;;;;;;;33.08;12.10;;;;;;;24.83;50.45;94979.34;4942605;29;20062;-79
2021/07/29 02:05:44;;;;;;;32.72;11.93;;;;;;;24.83;50.76;94974.78;4926113;29;20502;-80
2021/07/29 02:08:09;;;;;;;39.35;12.25;;;;;;;24.86;50.80;94981.34;4941843;29;20062;-80
2021/07/29 02:10:34;;;;;;;38.75;12.10;;;;;;;24.89;50.68;94980.72;4959286;29;20058;-79
2021/07/29 02:13:00;;;;;;;46.40;12.70;;;;;;;24.89;50.64;94975.38;4942313;29;20034;-80
2021/07/29 02:15:26;;;;;;;57.50;12.48;;;;;;;24.93;50.63;94973.69;4942366;29;20031;-80
2021/07/29 02:17:58;;;;;;;41.22;12.25;;;;;;;24.91;50.10;94980.41;4958083;29;20039;-80
2021/07/29 02:20:24;;;;;;;50.08;12.65;;;;;;;24.87;50.08;94976.81;4927029;29;20091;-80
2021/07/29 02:22:49;;;;;;;49.03;12.52;;;;;;;24.85;50.14;94977.91;4925784;29;20050;-80
2021/07/29 02:25:15;;;;;;;27.77;11.25;;;;;;;24.83;50.42;94976.66;4925904;29;20090;-80
2021/07/29 02:27:40;;;;;;;38.60;12.50;;;;;;;24.83;50.54;94974.00;4926224;29;20058;-80
2021/07/29 02:30:06;;;;;;;61.05;11.63;;;;;;;24.83;49.83;94969.47;4929606;29;20274;-79
2021/07/29 02:32:31;;;;;;;36.42;11.68;;;;;;;24.82;49.28;94967.91;4958767;29;20070;-80
2021/07/29 02:34:57;;;;;;;41.08;12.57;;;;;;;24.81;49.57;94976.22;4958614;29;20047;-80
2021/07/29 02:37:23;;;;;;;44.08;12.52;;;;;;;24.79;50.20;94973.88;4941765;29;20064;-80
2021/07/29 02:39:48;;;;;;;39.78;12.63;;;;;;;24.79;50.39;94973.09;4926076;29;20106;-80
2021/07/29 02:42:14;;;;;;;46.60;12.68;;;;;;;24.74;49.88;94968.72;4958002;28;20027;-80
2021/07/29 02:44:39;;;;;;;46.00;12.18;;;;;;;24.72;50.42;94970.91;4942027;29;20043;-80
2021/07/29 02:47:05;;;;;;;58.58;12.35;;;;;;;24.70;50.44;94969.66;4926167;29;20027;-80
2021/07/29 02:49:30;;;;;;;52.22;12.15;;;;;;;24.65;50.97;94973.28;4941706;29;20047;-80
2021/07/29 02:51:56;;;;;;;51.95;12.80;;;;;;;24.61;50.82;94974.25;4941875;29;20043;-80
2021/07/29 02:54:21;;;;;;;52.78;13.00;;;;;;;24.56;51.35;94969.84;4941805;29;20070;-80
2021/07/29 02:56:47;;;;;;;47.63;12.93;;;;;;;24.51;51.89;94973.47;4958396;29;20024;-80
2021/07/29 02:59:12;;;;;;;48.88;13.40;;;;;;;24.43;51.93;94973.50;4939962;29;20050;-80
2021/07/29 03:01:37;;;;;;;44.72;13.32;;;;;;;24.36;52.35;94968.63;4957373;29;20042;-80
2021/07/29 03:04:03;;;;;;;44.80;12.35;;;;;;;24.33;52.08;94965.84;4959057;29;20027;-80
2021/07/29 03:06:28;;;;;;;41.90;12.82;;;;;;;24.28;52.23;94969.41;4962803;23;20039;-80
2021/07/29 03:08:54;;;;;;;44.65;12.30;;;;;;;24.22;52.13;94975.97;4958071;29;20023;-80
2021/07/29 03:11:20;;;;;;;50.70;13.25;;;;;;;24.13;51.37;94978.63;4958607;29;20419;-80
2021/07/29 03:13:45;;;;;;;37.03;11.77;;;;;;;23.98;51.71;94980.97;4957876;29;20031;-79
2021/07/29 03:16:11;;;;;;;49.97;13.18;;;;;;;23.58;52.84;94983.72;4956997;29;20038;-79
2021/07/29 03:18:36;;;;;;;37.30;11.80;;;;;;;23.54;53.41;94980.09;4971777;23;20056;-79
2021/07/29 03:21:11;;;;;;;42.53;11.25;;;;;;;23.56;53.59;94986.66;4957295;29;20059;-78
2021/07/29 03:23:36;;;;;;;34.45;11.80;;;;;;;23.47;54.63;94991.19;4954291;29;20437;-79
2021/07/29 03:26:05;;;;;;;37.70;11.25;;;;;;;23.33;55.22;94993.94;4957666;29;20042;-80
2021/07/29 03:28:31;;;;;;;29.08;11.82;;;;;;;23.27;55.41;94997.84;4959261;29;20038;-78
2021/07/29 03:30:56;;;;;;;39.85;12.32;;;;;;;23.23;55.74;94998.75;4960428;29;20091;-79
2021/07/29 03:33:21;;;;;;;32.45;11.73;;;;;;;23.17;55.57;94994.66;4958229;29;20043;-79
2021/07/29 03:35:47;;;;;;;34.95;12.00;;;;;;;23.18;55.41;94999.66;4940941;29;20030;-80
2021/07/29 03:38:13;;;;;;;43.47;12.40;;;;;;;23.24;55.11;95005.59;4928353;23;20039;-80
2021/07/29 03:40:38;;;;;;;50.65;12.68;;;;;;;23.25;55.25;95004.50;4957697;29;20033;-80
2021/07/29 03:43:04;;;;;;;52.83;13.50;;;;;;;23.29;55.24;95008.91;4923422;29;20182;-79
2021/07/29 03:45:33;;;;;;;38.60;12.38;;;;;;;23.38;54.98;95010.81;4958095;29;20491;-79
2021/07/29 03:47:58;;;;;;;43.22;12.48;;;;;;;23.48;54.24;95005.22;4958151;29;20035;-79
2021/07/29 03:50:24;;;;;;;41.50;12.63;;;;;;;23.58;53.66;95010.25;4940795;29;20062;-79
2021/07/29 03:52:50;;;;;;;44.58;12.02;;;;;;;23.69;54.02;95000.94;4962485;23;20411;-79
2021/07/29 03:55:15;;;;;;;43.00;12.23;;;;;;;23.81;53.17;95003.78;4956535;28;20486;-80
2021/07/29 03:57:40;;;;;;;37.42;12.52;;;;;;;23.95;53.06;95004.41;4957715;29;20194;-80
2021/07/29 04:00:09;;;;;;;41.08;12.57;;;;;;;24.08;52.67;95002.72;4958220;29;20039;-80
2021/07/29 04:02:34;;;;;;;64.15;13.10;;;;;;;24.29;52.04;95018.03;4956293;28;20110;-80
2021/07/29 04:05:00;;;;;;;37.85;12.50;;;;;;;24.50;51.47;95008.34;4957970;29;20533;-80
2021/07/29 04:07:26;;;;;;;52.20;12.32;;;;;;;24.71;50.82;95008.47;4940664;29;20031;-80
2021/07/29 04:09:51;;;;;;;45.10;12.15;;;;;;;24.94;50.24;95007.16;4940409;29;20416;-80
2021/07/29 04:12:16;;;;;;;52.13;13.20;;;;;;;25.24;49.79;95005.38;4945385;23;20039;-79
2021/07/29 04:14:45;;;;;;;53.38;13.25;;;;;;;25.98;47.89;95004.81;4956453;29;20475;-80
2021/07/29 04:17:11;;;;;;;66.40;13.35;;;;;;;26.90;46.03;95003.88;4957217;29;20060;-79
2021/07/29 04:19:37;;;;;;;48.63;13.07;;;;;;;27.80;43.71;95003.75;4957712;29;20035;-80
2021/07/29 04:22:05;;;;;;;57.90;15.77;;;;;;;28.67;41.01;94997.84;4958532;29;20086;-80
2021/07/29 04:24:31;;;;;;;63.17;18.63;;;;;;;29.52;39.25;94999.25;4958464;29;20031;-80
2021/07/29 04:26:57;;;;;;;52.83;14.68;;;;;;;30.32;37.59;95000.63;4958257;29;20046;-80
2021/07/29 04:29:23;;;;;;;60.35;15.00;;;;;;;31.16;35.16;94996.44;4976970;23;20087;-80
2021/07/29 04:31:49;;;;;;;59.85;16.52;;;;;;;31.98;34.54;94998.50;4938177;29;20047;-80
2021/07/29 04:34:15;;;;;;;61.80;15.90;;;;;;;32.77;32.59;94995.63;4938246;29;20094;-80
2021/07/29 04:36:40;;;;;;;67.05;21.77;;;;;;;33.58;31.20;94992.16;4937733;29;20036;-80
2021/07/29 04:39:15;;;;;;;62.22;21.58;;;;;;;34.45;30.16;94991.50;4917746;29;20027;-78
2021/07/29 04:41:41;;;;;;;73.03;21.63;;;;;;;35.23;29.21;94991.72;4937584;29;20526;-79
2021/07/29 04:44:08;;;;;;;69.82;23.00;;;;;;;35.97;27.73;94990.16;4937891;29;20051;-79
2021/07/29 04:46:35;;;;;;;77.20;26.17;;;;;;;36.64;26.20;94986.47;4938350;29;20095;-79
2021/07/29 04:49:00;;;;;;;84.57;22.90;;;;;;;37.40;25.33;94990.25;4952830;29;20030;-79
2021/07/29 04:51:26;;;;;;;57.45;20.92;;;;;;;38.10;24.50;94988.84;4936528;29;20040;-79
2021/07/29 04:53:51;;;;;;;84.70;21.85;;;;;;;38.88;23.72;94986.38;4937024;29;20048;-80
2021/07/29 04:56:17;;;;;;;59.83;18.58;;;;;;;39.51;22.71;94994.75;4938531;29;20042;-80
2021/07/29 04:58:42;;;;;;;65.22;16.70;;;;;;;40.25;21.66;94984.53;4921233;29;20068;-79
2021/07/29 05:01:11;;;;;;;58.88;18.00;;;;;;;40.83;21.06;94981.44;4937897;29;20059;-79
2021/07/29 05:03:37;;;;;;;70.63;19.80;;;;;;;41.52;20.27;94993.88;4939714;29;20082;-79
2021/07/29 05:06:05;;;;;;;60.20;17.70;;;;;;;42.14;19.25;94999.34;4941220;29;20471;-79
2021/07/29 05:08:30;;;;;;;56.97;15.75;;;;;;;42.68;18.18;94988.47;4943139;29;20023;-79
2021/07/29 05:11:03;;;;;;;67.88;16.98;;;;;;;43.38;17.79;95001.22;4942086;29;20039;-80
2021/07/29 05:13:28;;;;;;;66.22;16.67;;;;;;;43.91;17.13;95003.41;4941710;29;20510;-80
2021/07/29 05:15:54;;;;;;;51.47;15.43;;;;;;;44.35;17.07;95001.50;4941057;29;20036;-80
2021/07/29 05:18:19;;;;;;;72.43;16.63;;;;;;;44.85;16.63;94999.69;4940805;29;20514;-80
2021/07/29 05:20:45;;;;;;;55.42;14.85;;;;;;;45.47;15.75;95002.41;4939982;29;20495;-80
2021/07/29 05:23:10;;;;;;;56.15;14.38;;;;;;;45.88;15.07;95005.81;4908266;29;20030;-80
2021/07/29 05:25:36;;;;;;;48.38;14.27;;;;;;;46.21;14.99;95004.00;4955994;29;20416;-79
2021/07/29 05:28:04;;;;;;;43.92;13.02;;;;;;;46.61;14.91;95009.34;4942880;29;20210;-80
2021/07/29 05:30:30;;;;;;;53.30;13.18;;;;;;;47.00;14.22;95011.53;4939475;29;20114;-80
2021/07/29 05:32:55;;;;;;;34.00;11.15;;;;;;;47.23;14.21;95008.13;4941182;29;20067;-80
2021/07/29 05:35:21;;;;;;;30.90;10.68;;;;;;;47.71;13.86;95013.69;4939777;29;20035;-80
2021/07/29 05:37:46;;;;;;;35.33;10.80;;;;;;;48.31;13.33;95015.38;4940269;29;20039;-80
2021/07/29 05:40:11;;;;;;;51.65;11.38;;;;;;;48.95;13.08;95023.06;4954259;23;20051;-80
2021/07/29 05:42:37;;;;;;;41.45;10.95;;;;;;;49.62;12.27;95007.47;4958781;29;20131;-80
2021/07/29 05:45:06;;;;;;;41.25;11.75;;;;;;;50.20;11.86;95021.53;4960607;29;20042;-80
2021/07/29 05:47:31;;;;;;;36.35;12.18;;;;;;;50.74;11.87;95019.84;4959636;29;20090;-80
2021/07/29 05:49:57;;;;;;;36.70;9.63;;;;;;;51.20;11.24;95016.94;4927413;29;20051;-80
2021/07/29 05:52:22;;;;;;;36.03;10.23;;;;;;;51.62;10.67;95026.56;4960198;28;20091;-80
2021/07/29 05:54:47;;;;;;;33.00;9.63;;;;;;;52.04;10.59;95019.47;4941034;29;20023;-80
2021/07/29 05:57:13;;;;;;;43.92;9.48;;;;;;;52.40;10.11;95023.34;4960320;28;20035;-80
2021/07/29 05:59:38;;;;;;;27.48;8.82;;;;;;;52.70;9.56;95027.22;4959844;29;20038;-80
2021/07/29 06:02:04;;;;;;;33.05;9.20;;;;;;;52.95;9.44;95028.22;4960433;28;20031;-81
2021/07/29 06:04:30;;;;;;;30.15;9.10;;;;;;;53.15;9.66;95034.81;4941964;29;20587;-80
2021/07/29 06:06:55;;;;;;;48.38;9.43;;;;;;;53.41;8.90;95042.91;4992602;23;20055;-80
2021/07/29 06:14:16;;;;;;;29.42;9.38;;;;;;;53.87;8.63;95037.47;4975510;23;20040;-78
2021/07/29 06:16:42;;;;;;;40.75;9.63;;;;;;;54.14;8.46;95054.56;4959311;28;20039;-81
2021/07/29 06:19:14;;;;;;;36.88;8.05;;;;;;;54.22;8.15;95041.63;4959577;29;20031;-80
2021/07/29 06:21:40;;;;;;;30.45;8.23;;;;;;;54.04;8.52;95033.88;4960507;29;20032;-80
2021/07/29 06:24:05;;;;;;;31.08;8.48;;;;;;;53.99;8.66;95038.16;4962304;29;20138;-81
2021/07/29 06:26:31;;;;;;;32.75;8.38;;;;;;;53.88;8.63;95038.97;4959685;29;20031;-80
2021/07/29 06:28:56;;;;;;;35.47;9.50;;;;;;;53.70;8.64;95033.97;4959157;29;20034;-80
2021/07/29 06:31:22;;;;;;;30.52;8.48;;;;;;;53.24;8.71;95035.31;4946988;23;20155;-80
2021/07/29 06:33:47;;;;;;;43.92;9.52;;;;;;;53.19;8.87;95036.06;4959819;29;20043;-80
2021/07/29 06:36:12;;;;;;;36.33;8.32;;;;;;;52.74;9.14;95027.72;4958935;29;20082;-80
2021/07/29 06:38:39;;;;;;;38.33;9.27;;;;;;;52.27;9.91;95021.06;4959682;29;20035;-80
2021/07/29 06:41:07;;;;;;;28.83;7.85;;;;;;;51.63;10.30;95017.75;4942226;29;20043;-80
2021/07/29 06:43:33;;;;;;;35.88;9.18;;;;;;;50.95;10.18;95013.00;4910580;29;20047;-80
2021/07/29 06:46:06;;;;;;;40.00;8.40;;;;;;;50.94;9.91;95010.72;4959273;28;20031;-81
2021/07/29 06:48:32;;;;;;;41.00;8.52;;;;;;;50.14;10.24;95004.88;4906588;29;20035;-80
2021/07/29 06:51:03;;;;;;;30.83;8.40;;;;;;;49.76;10.97;95003.16;4958896;28;20062;-80
2021/07/29 06:55:59;;;;;;;38.90;8.30;;;;;;;48.29;11.95;94998.56;4994026;23;20064;-80
2021/07/29 06:58:31;;;;;;;35.25;9.13;;;;;;;47.70;12.18;94987.34;4957970;29;20110;-80
2021/07/29 07:01:00;;;;;;;37.30;9.23;;;;;;;47.20;12.49;94984.25;4940977;29;20031;-80
2021/07/29 07:03:26;;;;;;;49.58;9.52;;;;;;;46.78;12.42;94982.25;4959073;29;20117;-80
2021/07/29 07:05:51;;;;;;;38.92;10.07;;;;;;;46.41;12.94;94975.31;4941992;29;20411;-81
2021/07/29 07:08:17;;;;;;;36.35;9.35;;;;;;;46.02;13.44;94975.00;4926537;29;20027;-81
2021/07/29 07:10:42;;;;;;;52.33;11.13;;;;;;;45.66;13.65;94970.25;4959303;29;20035;-80
2021/07/29 07:13:08;;;;;;;44.38;10.43;;;;;;;45.38;14.08;94972.16;4909967;29;20491;-81
2021/07/29 07:15:33;;;;;;;36.70;10.48;;;;;;;44.92;13.73;94984.97;4941936;29;20483;-80
2021/07/29 07:17:59;;;;;;;46.42;10.20;;;;;;;44.23;14.83;94994.09;4958079;29;20035;-80
2021/07/29 07:20:24;;;;;;;39.47;10.27;;;;;;;43.72;15.18;95002.50;4959156;29;20442;-80
2021/07/29 07:22:51;;;;;;;49.05;10.35;;;;;;;43.42;14.90;94990.91;4958375;29;20415;-79
2021/07/29 07:25:19;;;;;;;50.78;11.07;;;;;;;43.16;15.59;94988.63;4913795;23;20106;-79
2021/07/29 07:27:45;;;;;;;37.95;10.13;;;;;;;42.79;14.75;94988.91;4957087;28;20058;-80
2021/07/29 07:30:11;;;;;;;48.10;10.48;;;;;;;42.64;15.57;94989.78;4962122;23;20047;-80
2021/07/29 07:32:36;;;;;;;53.38;11.10;;;;;;;42.07;15.81;94983.91;4958006;29;20038;-80
2021/07/29 07:35:03;;;;;;;47.10;10.20;;;;;;;41.96;16.22;94988.88;4958288;29;20054;-80
2021/07/29 07:37:28;;;;;;;47.63;11.27;;;;;;;41.80;16.81;94991.63;4939281;29;20122;-80
2021/07/29 07:39:54;;;;;;;39.50;10.63;;;;;;;40.78;17.56;94983.44;4957444;28;20066;-80
2021/07/29 07:42:19;;;;;;;45.22;10.43;;;;;;;40.69;17.04;94977.81;4958530;28;20467;-80
2021/07/29 07:44:44;;;;;;;38.72;10.23;;;;;;;40.61;17.29;94978.38;4938658;29;20039;-79
2021/07/29 07:47:10;;;;;;;37.67;10.75;;;;;;;40.62;17.42;94983.41;4958162;28;20027;-79
2021/07/29 07:49:38;;;;;;;48.72;11.52;;;;;;;40.14;17.88;94973.06;4957210;28;20051;-80
2021/07/29 07:52:05;;;;;;;55.05;11.45;;;;;;;40.14;18.64;94978.50;4957956;28;20110;-79
2021/07/29 07:54:31;;;;;;;43.78;11.18;;;;;;;39.97;19.09;94980.41;4957620;29;20038;-79
2021/07/29 07:56:56;;;;;;;40.55;11.88;;;;;;;39.75;18.80;94982.72;4940447;29;20039;-79
2021/07/29 07:59:22;;;;;;;46.25;11.25;;;;;;;39.82;18.71;94982.56;4958162;28;20023;-80
2021/07/29 08:01:47;;;;;;;44.05;10.98;;;;;;;39.98;19.12;94973.00;4957818;28;20097;-79
2021/07/29 08:04:12;;;;;;;48.92;11.10;;;;;;;40.09;19.48;94968.13;4941487;29;20334;-81
2021/07/29 08:06:38;;;;;;;46.80;12.13;;;;;;;39.99;20.17;94967.13;4972570;23;20079;-81
2021/07/29 08:09:03;;;;;;;57.88;12.32;;;;;;;39.78;19.93;94970.22;4957992;29;20043;-81
2021/07/29 08:11:32;;;;;;;35.45;11.10;;;;;;;39.80;19.50;94976.00;4956706;29;20042;-79
2021/07/29 08:13:57;;;;;;;53.63;10.75;;;;;;;39.75;19.24;94974.53;4957862;28;20046;-80
2021/07/29 08:16:23;;;;;;;59.35;11.00;;;;;;;39.67;18.93;94975.84;4959079;29;20427;-80
2021/07/29 08:18:50;;;;;;;48.67;11.40;;;;;;;39.63;19.25;94971.66;4956253;29;20041;-80
2021/07/29 08:21:15;;;;;;;42.90;11.15;;;;;;;39.57;19.63;94965.94;4957988;29;20070;-80
2021/07/29 08:23:41;;;;;;;51.53;10.90;;;;;;;39.53;19.85;94963.25;4945697;23;20550;-80
2021/07/29 08:26:07;;;;;;;61.40;11.40;;;;;;;39.46;19.42;94954.41;4963526;23;20082;-79
2021/07/29 08:28:34;;;;;;;54.22;11.43;;;;;;;39.00;20.15;94964.06;4957701;28;20034;-80
2021/07/29 08:30:59;;;;;;;44.28;11.80;;;;;;;38.75;20.20;94964.44;4944580;23;20078;-81
2021/07/29 08:33:25;;;;;;;38.85;11.15;;;;;;;38.76;19.99;94963.25;4958000;29;20047;-81
2021/07/29 08:35:51;;;;;;;52.40;11.23;;;;;;;38.71;20.15;94961.75;4941166;29;20039;-81
2021/07/29 08:38:16;;;;;;;45.70;10.90;;;;;;;38.64;20.15;94956.41;4941348;29;20533;-80
2021/07/29 08:40:42;;;;;;;46.05;11.82;;;;;;;38.59;20.67;94956.84;4941021;29;20031;-81
2021/07/29 08:43:09;;;;;;;43.65;11.60;;;;;;;38.59;20.67;94954.13;4956689;29;20035;-81
2021/07/29 08:45:38;;;;;;;53.60;10.70;;;;;;;38.64;21.11;94950.97;4956231;29;20023;-81
2021/07/29 08:48:04;;;;;;;43.22;11.18;;;;;;;38.69;20.80;94955.94;4956590;29;20046;-81
2021/07/29 08:50:29;;;;;;;44.72;11.57;;;;;;;38.46;20.55;94944.97;4957367;29;20114;-81
2021/07/29 08:52:55;;;;;;;51.17;11.73;;;;;;;38.33;19.90;94946.69;4956886;29;20027;-81
2021/07/29 08:55:20;;;;;;;38.67;9.43;;;;;;;38.33;20.26;94946.69;4939696;29;20042;-81
2021/07/29 08:57:45;;;;;;;57.67;11.75;;;;;;;38.36;20.18;94945.88;4924634;29;20110;-80
2021/07/29 09:00:12;;;;;;;42.20;10.32;;;;;;;38.35;19.93;94949.78;4956923;29;20090;-80
2021/07/29 09:02:38;;;;;;;47.42;12.43;;;;;;;38.30;19.76;94947.53;4923712;29;20035;-80
2021/07/29 09:05:21;;;;;;;45.92;10.60;;;;;;;38.21;19.78;94944.50;4924340;29;20565;-81
2021/07/29 09:08:03;;;;;;;39.47;9.95;;;;;;;38.06;19.71;94941.94;4956051;29;20503;-80
2021/07/29 09:10:29;;;;;;;53.92;11.40;;;;;;;38.02;20.40;94935.00;4923776;29;20030;-81
2021/07/29 09:13:08;;;;;;;44.10;10.55;;;;;;;37.96;20.60;94929.28;4959059;29;20035;-81
2021/07/29 09:15:34;;;;;;;46.60;10.73;;;;;;;37.89;20.96;94928.56;4940303;29;20090;-80
2021/07/29 09:18:02;;;;;;;44.67;11.10;;;;;;;37.86;20.76;94924.72;4940367;29;20027;-81
2021/07/29 09:20:28;;;;;;;44.55;10.40;;;;;;;37.88;20.80;94919.66;4937940;29;20218;-80
2021/07/29 09:22:53;;;;;;;37.25;10.70;;;;;;;37.93;20.76;94924.66;4956632;29;20434;-81
2021/07/29 09:25:22;;;;;;;35.25;10.05;;;;;;;37.93;20.52;94924.66;4957292;29;20058;-80
2021/07/29 09:27:48;;;;;;;39.60;9.63;;;;;;;37.91;20.64;94918.84;4957807;29;20039;-80
2021/07/29 09:30:30;;;;;;;40.33;11.05;;;;;;;37.89;20.45;94923.13;4956935;29;20046;-80
2021/07/29 09:33:13;;;;;;;38.47;10.55;;;;;;;37.83;21.52;94920.09;4954461;29;20040;-80
2021/07/29 09:35:40;;;;;;;49.40;9.95;;;;;;;37.76;19.89;94914.75;4957004;29;20035;-79
2021/07/29 09:38:09;;;;;;;41.10;9.63;;;;;;;37.72;19.99;94913.97;4957258;29;20102;-80
2021/07/29 09:40:51;;;;;;;40.28;10.73;;;;;;;37.64;21.23;94915.25;4922172;29;20039;-81
2021/07/29 09:43:24;;;;;;;44.75;9.80;;;;;;;37.54;19.62;94914.94;4957395;29;20039;-80
2021/07/29 09:45:51;;;;;;;45.63;10.90;;;;;;;37.50;20.37;94916.91;4961197;23;20050;-80
2021/07/29 09:48:18;;;;;;;45.45;10.77;;;;;;;37.43;20.43;94914.28;4957356;29;20050;-81
2021/07/29 09:50:43;;;;;;;39.35;9.70;;;;;;;37.40;20.24;94912.34;4924619;29;20032;-80
2021/07/29 09:53:09;;;;;;;50.65;10.55;;;;;;;37.33;20.22;94904.31;4942581;29;20102;-80
2021/07/29 09:55:35;;;;;;;41.03;9.65;;;;;;;37.25;19.88;94905.50;4960123;28;20031;-80
2021/07/29 09:58:03;;;;;;;45.78;10.10;;;;;;;37.21;19.87;94912.91;4960242;29;20031;-79
2021/07/29 10:02:56;;;;;;;41.75;10.70;;;;;;;37.23;19.87;94900.47;4981533;23;20055;-81
2021/07/29 10:05:34;;;;;;;50.40;9.50;;;;;;;37.21;20.66;94910.19;4959951;29;20435;-80
2021/07/29 10:08:00;;;;;;;34.20;10.15;;;;;;;37.15;20.55;94904.44;4953865;23;20043;-78
2021/07/29 10:10:26;;;;;;;39.10;9.20;;;;;;;37.15;19.50;94903.66;4928226;29;20043;-80
2021/07/29 10:12:51;;;;;;;46.58;10.20;;;;;;;37.17;19.72;94906.75;4927334;29;20042;-79
2021/07/29 10:15:39;;;;;;;41.50;9.52;;;;;;;37.22;20.02;94892.75;4926975;29;20419;-79
2021/07/29 10:18:07;;;;;;;50.08;10.30;;;;;;;37.13;20.16;94908.72;4960459;29;20028;-79
2021/07/29 10:20:33;;;;;;;42.92;10.18;;;;;;;36.93;20.06;94898.41;4958887;29;20047;-79
2021/07/29 10:23:28;;;;;;;34.05;8.95;;;;;;;36.76;20.96;94888.44;4926311;29;20089;-79
2021/07/29 10:25:54;;;;;;;42.60;9.20;;;;;;;36.69;20.38;94891.19;4939670;28;20415;-81
2021/07/29 10:28:24;;;;;;;41.28;9.05;;;;;;;36.64;20.42;94895.09;4959395;29;20028;-80
2021/07/29 10:30:53;;;;;;;38.55;8.98;;;;;;;36.49;20.60;94890.94;4942851;29;20115;-81
2021/07/29 10:33:19;;;;;;;49.05;10.10;;;;;;;36.52;20.51;94878.53;4926879;29;20043;-80
2021/07/29 10:35:44;;;;;;;37.03;8.40;;;;;;;36.54;20.55;94887.03;4922518;23;20094;-81
2021/07/29 10:38:10;;;;;;;50.83;9.50;;;;;;;36.46;20.17;94880.91;4959489;29;20047;-81
2021/07/29 10:40:40;;;;;;;37.88;8.85;;;;;;;36.34;19.29;94876.72;4959297;29;20035;-80
2021/07/29 10:43:24;;;;;;;38.00;8.27;;;;;;;36.20;18.92;94868.63;4957982;29;20043;-79
2021/07/29 10:46:06;;;;;;;38.67;8.10;;;;;;;36.10;19.10;94880.28;4959250;29;20027;-79
2021/07/29 10:48:44;;;;;;;46.97;9.10;;;;;;;36.07;19.37;94871.00;4927954;29;20106;-80
2021/07/29 10:51:15;;;;;;;37.35;8.75;;;;;;;35.99;19.86;94872.22;4941127;29;20035;-79
2021/07/29 10:53:44;;;;;;;;;;;;;;;36.02;19.82;94868.72;4962738;29;20073;-81
2021/07/29 10:56:14;;;;;;;41.72;9.18;;;;;;;35.94;19.70;94866.44;4960383;29;19926;-81
2021/07/29 10:58:46;;;;;;;34.63;8.23;;;;;;;35.85;19.11;94869.56;4940324;29;20166;-79
2021/07/29 11:01:12;;;;;;;33.95;7.80;;;;;;;35.79;19.23;94869.16;4959043;29;20508;-81
2021/07/29 11:03:46;;;;;;;41.78;9.05;;;;;;;35.82;19.76;94864.16;4961946;28;20042;-79
2021/07/29 11:07:02;;;;;;;66.68;8.70;;;;;;;35.90;19.16;94854.84;4961155;29;20071;-81
2021/07/29 11:09:20;;;;;;;36.85;7.30;;;;;;;35.90;20.13;94861.03;4932243;29;20043;-81
2021/07/29 11:11:47;;;;;;;31.75;7.53;;;;;;;35.79;18.13;94855.63;4925651;29;20046;-81
2021/07/29 11:14:13;;;;;;;26.45;5.97;;;;;;;35.68;17.85;94854.91;4910460;29;20035;-81
2021/07/29 11:16:39;;;;;;;38.40;7.03;;;;;;;35.55;18.14;94856.50;4925953;29;20046;-81
2021/07/29 11:19:05;;;;;;;49.75;8.63;;;;;;;35.44;18.64;94850.34;4958602;29;20035;-82
2021/07/29 11:21:32;;;;;;;29.33;7.65;;;;;;;35.48;18.37;94853.81;4940890;29;20118;-81
2021/07/29 11:23:58;;;;;;;35.35;7.22;;;;;;;35.60;19.11;94845.25;4909700;29;20035;-81
2021/07/29 11:26:24;;;;;;;35.53;7.82;;;;;;;35.70;19.06;94841.00;4940906;29;20070;-79
2021/07/29 11:29:06;;;;;;;39.03;7.22;;;;;;;35.63;18.46;94847.19;4958620;29;20054;-81
2021/07/29 11:33:59;;;;;;;45.42;8.25;;;;;;;35.60;17.42;94847.97;4979868;23;20482;-80